createdAt,value
2019-02-25T00:00:51.017Z,28.40
2019-02-25T00:03:17.211Z,28.30
2019-02-25T00:05:43.394Z,28.30
2019-02-25T00:08:09.585Z,28.10
2019-02-25T00:10:35.804Z,28.00
2019-02-25T00:13:02.010Z,27.90
2019-02-25T00:15:28.201Z,27.90
2019-02-25T00:17:54.382Z,27.90
2019-02-25T00:20:20.585Z,27.80
2019-02-25T00:22:46.773Z,27.80
2019-02-25T00:25:12.980Z,27.80
2019-02-25T00:27:39.160Z,27.80
2019-02-25T00:30:05.355Z,27.80
2019-02-25T00:32:31.558Z,28.10
2019-02-25T00:34:57.759Z,28.00
2019-02-25T00:37:23.954Z,28.10
2019-02-25T00:39:50.178Z,27.80
2019-02-25T00:42:16.373Z,27.80
2019-02-25T00:44:42.586Z,27.70
2019-02-25T00:47:09.531Z,27.80
2019-02-25T00:49:35.758Z,27.80
2019-02-25T00:52:01.946Z,27.80
2019-02-25T00:54:28.150Z,27.90
2019-02-25T00:56:54.336Z,27.70
2019-02-25T00:59:20.536Z,27.80
2019-02-25T01:01:46.759Z,27.70
2019-02-25T01:04:12.940Z,27.90
2019-02-25T01:06:39.112Z,27.80
2019-02-25T01:09:05.297Z,27.70
2019-02-25T01:11:31.505Z,27.60
2019-02-25T01:13:57.709Z,27.90
2019-02-25T01:16:23.885Z,27.80
2019-02-25T01:18:50.074Z,27.70
2019-02-25T01:21:16.275Z,27.40
2019-02-25T01:23:42.467Z,27.60
2019-02-25T01:26:08.662Z,27.80
2019-02-25T01:28:34.842Z,28.10
2019-02-25T01:31:01.026Z,28.10
2019-02-25T01:33:28.522Z,27.80
2019-02-25T01:35:55.488Z,27.80
2019-02-25T01:38:21.695Z,27.80
2019-02-25T01:40:47.910Z,27.70
2019-02-25T01:43:14.117Z,27.90
2019-02-25T01:45:40.339Z,28.10
2019-02-25T01:48:06.543Z,27.70
2019-02-25T01:50:32.757Z,27.80
2019-02-25T01:52:58.936Z,27.60
2019-02-25T01:55:25.907Z,27.80
2019-02-25T01:57:52.091Z,27.80
2019-02-25T02:00:18.279Z,28.10
2019-02-25T02:02:44.467Z,27.90
2019-02-25T02:05:10.672Z,28.10
2019-02-25T02:07:36.854Z,27.90
2019-02-25T02:10:03.033Z,28.10
2019-02-25T02:12:29.219Z,28.10
2019-02-25T02:14:55.413Z,28.10
2019-02-25T02:17:21.597Z,28.00
2019-02-25T02:19:47.793Z,27.80
2019-02-25T02:22:13.989Z,28.10
2019-02-25T02:24:40.202Z,28.10
2019-02-25T02:27:06.429Z,28.10
2019-02-25T02:29:32.605Z,28.20
2019-02-25T02:31:58.812Z,28.20
2019-02-25T02:34:25.001Z,28.10
2019-02-25T02:36:51.196Z,28.10
2019-02-25T02:39:17.389Z,28.00
2019-02-25T02:41:43.628Z,28.00
2019-02-25T02:44:09.845Z,28.00
2019-02-25T02:46:36.071Z,28.10
2019-02-25T02:49:02.407Z,28.00
2019-02-25T02:51:28.607Z,28.00
2019-02-25T02:53:54.810Z,28.00
2019-02-25T02:56:21.001Z,28.00
2019-02-25T02:58:47.198Z,28.00
2019-02-25T03:01:13.381Z,28.10
2019-02-25T03:03:39.571Z,28.00
2019-02-25T03:06:05.757Z,28.10
2019-02-25T03:08:31.963Z,27.90
2019-02-25T03:10:58.167Z,28.00
2019-02-25T03:13:25.180Z,28.00
2019-02-25T03:15:51.372Z,28.00
2019-02-25T03:18:17.574Z,28.00
2019-02-25T03:20:43.783Z,28.00
2019-02-25T03:23:09.986Z,28.10
2019-02-25T03:25:36.162Z,28.10
2019-02-25T03:28:02.349Z,28.00
2019-02-25T03:30:28.537Z,28.10
2019-02-25T03:32:54.750Z,28.00
2019-02-25T03:35:20.943Z,28.00
2019-02-25T03:37:47.145Z,28.10
2019-02-25T03:40:13.335Z,27.90
2019-02-25T03:42:39.535Z,27.90
2019-02-25T03:45:05.750Z,27.90
2019-02-25T03:47:31.971Z,28.50
2019-02-25T03:49:58.225Z,28.00
2019-02-25T03:52:24.430Z,27.90
2019-02-25T03:54:50.638Z,27.90
2019-02-25T03:57:16.829Z,28.00
2019-02-25T03:59:43.810Z,28.00
2019-02-25T04:02:10.002Z,27.90
2019-02-25T04:04:36.202Z,28.00
2019-02-25T04:07:02.384Z,27.90
2019-02-25T04:09:32.290Z,27.80
2019-02-25T04:11:58.473Z,27.90
2019-02-25T04:14:24.695Z,27.90
2019-02-25T04:16:50.895Z,27.90
2019-02-25T04:19:17.085Z,27.80
2019-02-25T04:21:43.277Z,27.70
2019-02-25T04:24:09.474Z,27.80
2019-02-25T04:26:35.681Z,27.80
2019-02-25T04:29:01.917Z,27.80
2019-02-25T04:31:28.126Z,27.80
2019-02-25T04:33:54.316Z,27.70
2019-02-25T04:36:21.285Z,27.80
2019-02-25T04:38:47.468Z,27.70
2019-02-25T04:41:13.649Z,27.80
2019-02-25T04:43:39.850Z,27.90
2019-02-25T04:46:06.056Z,27.80
2019-02-25T04:48:32.262Z,27.80
2019-02-25T04:50:58.481Z,27.80
2019-02-25T04:53:24.672Z,27.70
2019-02-25T04:55:50.867Z,27.80
2019-02-25T04:58:17.058Z,27.70
2019-02-25T05:00:43.267Z,27.80
2019-02-25T05:03:09.446Z,27.70
2019-02-25T05:05:35.655Z,27.70
2019-02-25T05:08:02.628Z,27.70
2019-02-25T05:10:28.811Z,27.70
2019-02-25T05:12:55.019Z,27.70
2019-02-25T05:15:21.214Z,27.80
2019-02-25T05:17:47.404Z,27.70
2019-02-25T05:20:13.589Z,27.80
2019-02-25T05:22:39.799Z,27.80
2019-02-25T05:25:06.003Z,27.70
2019-02-25T05:27:32.182Z,27.80
2019-02-25T05:29:58.387Z,27.70
2019-02-25T05:32:24.570Z,27.70
2019-02-25T05:34:50.763Z,27.70
2019-02-25T05:37:17.715Z,27.70
2019-02-25T05:39:43.914Z,27.70
2019-02-25T05:42:10.121Z,27.70
2019-02-25T05:44:36.311Z,27.70
2019-02-25T05:47:02.519Z,27.80
2019-02-25T05:49:32.256Z,27.80
2019-02-25T05:52:02.391Z,28.30
2019-02-25T05:54:28.594Z,27.70
2019-02-25T05:56:54.813Z,27.70
2019-02-25T05:59:21.016Z,27.80
2019-02-25T06:01:47.214Z,27.90
2019-02-25T06:04:13.406Z,27.90
2019-02-25T06:06:39.593Z,27.80
2019-02-25T06:09:05.781Z,27.80
2019-02-25T06:11:31.970Z,27.80
2019-02-25T06:13:58.175Z,27.90
2019-02-25T06:16:24.358Z,27.90
2019-02-25T06:18:50.542Z,27.80
2019-02-25T06:21:16.751Z,27.90
2019-02-25T06:23:42.931Z,27.80
2019-02-25T06:26:09.121Z,27.80
2019-02-25T06:28:38.331Z,27.90
2019-02-25T06:31:04.516Z,27.80
2019-02-25T06:33:30.707Z,27.90
2019-02-25T06:35:56.905Z,27.90
2019-02-25T06:38:23.108Z,28.00
2019-02-25T06:40:49.288Z,28.00
2019-02-25T06:43:16.344Z,27.80
2019-02-25T06:45:42.565Z,27.90
2019-02-25T06:48:08.788Z,27.80
2019-02-25T06:50:34.977Z,27.90
2019-02-25T06:53:01.185Z,27.80
2019-02-25T06:55:27.412Z,27.80
2019-02-25T06:57:53.595Z,27.90
2019-02-25T07:00:19.803Z,27.80
2019-02-25T07:02:46.021Z,27.80
2019-02-25T07:05:12.222Z,27.80
2019-02-25T07:07:38.411Z,27.80
2019-02-25T07:10:04.631Z,27.80
2019-02-25T07:12:30.845Z,27.80
2019-02-25T07:14:57.053Z,27.70
2019-02-25T07:17:24.001Z,27.90
2019-02-25T07:19:50.218Z,27.90
2019-02-25T07:22:20.543Z,27.90
2019-02-25T07:24:52.863Z,27.90
2019-02-25T07:27:12.991Z,27.80
2019-02-25T07:29:39.178Z,27.80
2019-02-25T07:32:05.373Z,27.80
2019-02-25T07:34:31.573Z,27.80
2019-02-25T07:36:57.752Z,27.90
2019-02-25T07:39:23.968Z,27.80
2019-02-25T07:41:50.163Z,27.80
2019-02-25T07:44:16.345Z,27.80
2019-02-25T07:46:42.526Z,27.80
2019-02-25T07:49:08.714Z,27.90
2019-02-25T07:51:35.661Z,28.00
2019-02-25T07:54:01.844Z,28.00
2019-02-25T07:56:28.019Z,27.90
2019-02-25T07:58:54.199Z,28.00
2019-02-25T08:01:20.417Z,27.90
2019-02-25T08:03:46.612Z,28.00
2019-02-25T08:06:12.835Z,28.00
2019-02-25T08:08:39.077Z,28.00
2019-02-25T08:11:05.283Z,28.10
2019-02-25T08:13:31.470Z,28.00
2019-02-25T08:15:57.697Z,28.10
2019-02-25T08:18:23.879Z,28.10
2019-02-25T08:20:50.077Z,28.10
2019-02-25T08:23:16.266Z,28.10
2019-02-25T08:25:42.444Z,28.10
2019-02-25T08:28:08.622Z,28.10
2019-02-25T08:30:34.825Z,28.10
2019-02-25T08:33:01.008Z,28.20
2019-02-25T08:35:27.201Z,28.20
2019-02-25T08:37:53.408Z,28.30
2019-02-25T08:40:19.664Z,28.20
2019-02-25T08:42:45.865Z,28.30
2019-02-25T08:45:12.051Z,28.30
2019-02-25T08:47:38.242Z,28.30
2019-02-25T08:50:04.431Z,28.30
2019-02-25T08:52:30.618Z,28.30
2019-02-25T08:54:56.858Z,28.30
2019-02-25T08:57:23.083Z,28.30
2019-02-25T08:59:49.291Z,28.40
2019-02-25T09:02:15.493Z,28.30
2019-02-25T09:04:41.696Z,28.30
2019-02-25T09:07:07.881Z,28.40
2019-02-25T09:09:34.064Z,28.40
2019-02-25T09:12:00.258Z,28.40
2019-02-25T09:14:26.446Z,28.40
2019-02-25T09:16:52.664Z,28.40
2019-02-25T09:19:18.845Z,28.30
2019-02-25T09:21:45.041Z,28.40
2019-02-25T09:24:11.224Z,28.40
2019-02-25T09:26:37.413Z,28.50
2019-02-25T09:29:03.588Z,28.50
2019-02-25T09:31:29.794Z,28.50
2019-02-25T09:33:56.000Z,28.60
2019-02-25T09:36:22.198Z,28.60
2019-02-25T09:38:48.401Z,28.60
2019-02-25T09:41:14.583Z,28.60
2019-02-25T09:43:40.778Z,28.60
2019-02-25T09:46:06.966Z,28.60
2019-02-25T09:48:33.163Z,28.70
2019-02-25T09:50:59.397Z,28.70
2019-02-25T09:53:25.572Z,28.70
2019-02-25T09:55:51.769Z,28.70
2019-02-25T09:58:17.957Z,28.80
2019-02-25T10:00:46.056Z,28.80
2019-02-25T10:03:10.400Z,28.80
2019-02-25T10:05:36.609Z,28.80
2019-02-25T10:08:02.810Z,28.80
2019-02-25T10:10:29.025Z,28.80
2019-02-25T10:12:55.279Z,28.80
2019-02-25T10:15:21.495Z,28.80
2019-02-25T10:17:50.794Z,28.90
2019-02-25T10:20:16.994Z,28.90
2019-02-25T10:22:43.197Z,28.90
2019-02-25T10:25:09.469Z,29.00
2019-02-25T10:27:35.665Z,28.90
2019-02-25T10:30:03.997Z,29.10
2019-02-25T10:32:30.186Z,29.10
2019-02-25T10:34:54.379Z,29.10
2019-02-25T10:37:20.606Z,28.90
2019-02-25T10:39:47.984Z,29.10
2019-02-25T10:42:13.023Z,29.20
2019-02-25T10:44:40.283Z,29.20
2019-02-25T10:47:05.471Z,29.20
2019-02-25T10:49:33.566Z,29.20
2019-02-25T10:51:57.894Z,29.20
2019-02-25T10:54:25.481Z,29.20
2019-02-25T10:56:51.633Z,29.20
2019-02-25T10:59:16.544Z,29.40
2019-02-25T11:01:43.426Z,29.30
2019-02-25T11:04:08.977Z,29.30
2019-02-25T11:06:35.998Z,29.40
2019-02-25T11:09:01.382Z,29.40
2019-02-25T11:11:27.599Z,29.40
2019-02-25T11:13:53.785Z,29.40
2019-02-25T11:16:20.464Z,29.40
2019-02-25T11:18:46.223Z,29.40
2019-02-25T11:21:13.212Z,29.50
2019-02-25T11:23:39.409Z,29.50
2019-02-25T11:26:05.621Z,29.50
2019-02-25T11:28:32.364Z,29.60
2019-02-25T11:30:58.049Z,29.60
2019-02-25T11:35:55.415Z,29.60
2019-02-25T11:38:21.613Z,29.60
2019-02-25T11:40:47.798Z,29.70
2019-02-25T11:43:16.648Z,29.60
2019-02-25T11:45:44.847Z,29.70
2019-02-25T11:48:11.053Z,29.70
2019-02-25T11:50:37.241Z,29.70
2019-02-25T11:53:08.821Z,29.80
2019-02-25T11:55:35.031Z,30.30
2019-02-25T11:58:01.234Z,29.80
2019-02-25T12:00:27.433Z,29.80
2019-02-25T12:02:53.633Z,29.90
2019-02-25T12:05:19.812Z,29.90
2019-02-25T12:07:46.025Z,29.90
2019-02-25T12:10:12.216Z,29.90
2019-02-25T12:12:38.449Z,29.90
2019-02-25T12:15:04.635Z,30.00
2019-02-25T12:17:30.811Z,30.00
2019-02-25T12:19:57.019Z,30.00
2019-02-25T12:22:23.246Z,30.00
2019-02-25T12:24:49.473Z,30.00
2019-02-25T12:27:15.678Z,30.00
2019-02-25T12:29:41.990Z,30.10
2019-02-25T12:32:08.136Z,30.10
2019-02-25T12:34:34.345Z,30.10
2019-02-25T12:37:00.533Z,30.90
2019-02-25T12:39:26.763Z,30.10
2019-02-25T12:41:53.121Z,30.10
2019-02-25T12:44:19.333Z,30.10
2019-02-25T12:46:50.714Z,30.20
2019-02-25T12:49:16.934Z,30.30
2019-02-25T12:51:43.146Z,30.20
2019-02-25T12:54:09.374Z,30.30
2019-02-25T12:56:38.536Z,30.30
2019-02-25T12:59:05.339Z,30.40
2019-02-25T13:01:31.013Z,30.40
2019-02-25T13:03:57.233Z,30.40
2019-02-25T13:06:23.419Z,30.40
2019-02-25T13:08:49.785Z,30.40
2019-02-25T13:11:16.007Z,30.40
2019-02-25T13:13:42.199Z,30.50
2019-02-25T13:16:09.168Z,30.60
2019-02-25T13:18:35.444Z,30.60
2019-02-25T13:21:02.569Z,30.60
2019-02-25T13:23:28.767Z,30.60
2019-02-25T13:25:54.965Z,30.60
2019-02-25T13:28:26.218Z,30.70
2019-02-25T13:30:51.807Z,30.70
2019-02-25T13:33:18.660Z,30.70
2019-02-25T13:35:44.895Z,30.80
2019-02-25T13:38:11.141Z,30.80
2019-02-25T13:40:37.365Z,30.90
2019-02-25T13:43:03.756Z,30.90
2019-02-25T13:45:29.989Z,30.90
2019-02-25T13:47:56.190Z,30.90
2019-02-25T13:50:22.436Z,30.90
2019-02-25T13:52:49.111Z,31.00
2019-02-25T13:55:15.053Z,31.00
2019-02-25T13:57:41.283Z,31.00
2019-02-25T14:00:07.504Z,31.00
2019-02-25T14:02:33.750Z,31.10
2019-02-25T14:05:00.777Z,31.10
2019-02-25T14:07:27.223Z,31.10
2019-02-25T14:09:53.606Z,31.10
2019-02-25T14:12:20.045Z,31.10
2019-02-25T14:14:46.270Z,31.20
2019-02-25T14:17:12.504Z,31.20
2019-02-25T14:19:38.709Z,31.20
2019-02-25T14:22:05.074Z,31.30
2019-02-25T14:24:32.081Z,31.30
2019-02-25T14:26:58.337Z,31.30
2019-02-25T14:29:26.488Z,31.40
2019-02-25T14:31:51.076Z,31.40
2019-02-25T14:34:17.001Z,31.40
2019-02-25T14:36:43.442Z,31.50
2019-02-25T14:39:09.665Z,31.50
2019-02-25T14:41:36.019Z,31.50
2019-02-25T14:44:02.219Z,31.60
2019-02-25T14:46:28.474Z,31.70
2019-02-25T14:48:54.834Z,31.60
2019-02-25T14:51:21.037Z,31.60
2019-02-25T14:53:49.235Z,31.70
2019-02-25T14:56:13.693Z,31.70
2019-02-25T14:58:40.545Z,32.50
2019-02-25T15:01:06.176Z,31.90
2019-02-25T15:03:32.564Z,31.90
2019-02-25T15:05:59.301Z,31.90
2019-02-25T15:08:26.330Z,32.00
2019-02-25T15:10:51.463Z,32.00
2019-02-25T15:13:17.673Z,32.00
2019-02-25T15:15:45.420Z,32.00
2019-02-25T15:18:10.129Z,32.00
2019-02-25T15:20:36.504Z,32.10
2019-02-25T15:23:02.914Z,32.10
2019-02-25T15:25:31.266Z,32.10
2019-02-25T15:27:59.152Z,32.10
2019-02-25T15:30:27.717Z,32.10
2019-02-25T15:32:55.578Z,32.10
2019-02-25T15:35:17.878Z,32.20
2019-02-25T15:37:44.894Z,32.20
2019-02-25T15:40:11.886Z,32.20
2019-02-25T15:42:38.414Z,33.00
2019-02-25T15:45:02.826Z,32.30
2019-02-25T15:47:29.013Z,32.30
2019-02-25T15:49:55.374Z,32.40
2019-02-25T15:52:22.898Z,32.30
2019-02-25T15:54:47.736Z,32.30
2019-02-25T15:57:13.942Z,32.50
2019-02-25T15:59:40.180Z,32.20
2019-02-25T16:02:07.521Z,32.40
2019-02-25T16:04:33.992Z,32.50
2019-02-25T16:07:03.174Z,32.50
2019-02-25T16:09:27.602Z,32.60
2019-02-25T16:11:53.059Z,32.60
2019-02-25T16:14:21.309Z,32.50
2019-02-25T16:16:45.681Z,32.70
2019-02-25T16:19:13.542Z,32.60
2019-02-25T16:21:40.790Z,32.60
2019-02-25T16:24:07.143Z,32.70
2019-02-25T16:26:32.078Z,32.70
2019-02-25T16:28:59.031Z,32.80
2019-02-25T16:31:28.590Z,32.80
2019-02-25T16:33:53.884Z,32.80
2019-02-25T16:36:19.387Z,32.80
2019-02-25T16:38:45.763Z,32.80
2019-02-25T16:41:12.154Z,32.80
2019-02-25T16:43:38.530Z,32.80
2019-02-25T16:46:06.445Z,32.80
2019-02-25T16:48:32.552Z,32.90
2019-02-25T16:50:57.257Z,32.90
2019-02-25T16:53:23.534Z,32.90
2019-02-25T16:55:51.387Z,32.90
2019-02-25T16:58:16.002Z,33.00
2019-02-25T17:00:42.289Z,32.90
2019-02-25T17:03:09.282Z,33.00
2019-02-25T17:05:37.274Z,33.00
2019-02-25T17:08:02.997Z,33.00
2019-02-25T17:10:31.004Z,33.00
2019-02-25T17:12:54.325Z,33.10
2019-02-25T17:15:19.634Z,33.00
2019-02-25T17:17:45.846Z,33.00
2019-02-25T17:20:13.092Z,33.00
2019-02-25T17:22:38.310Z,33.00
2019-02-25T17:25:08.197Z,33.10
2019-02-25T17:27:32.995Z,33.10
2019-02-25T17:29:59.846Z,33.10
2019-02-25T17:32:25.550Z,33.10
2019-02-25T17:37:23.733Z,33.10
2019-02-25T17:39:54.139Z,33.10
2019-02-25T17:42:16.320Z,33.10
2019-02-25T17:44:42.545Z,33.10
2019-02-25T17:47:10.923Z,33.00
2019-02-25T17:49:35.829Z,33.00
2019-02-25T17:52:01.398Z,33.10
2019-02-25T17:54:29.507Z,33.10
2019-02-25T17:56:53.835Z,33.00
2019-02-25T17:59:21.375Z,33.00
2019-02-25T18:01:48.014Z,33.00
2019-02-25T18:04:12.522Z,33.00
2019-02-25T18:06:41.449Z,33.00
2019-02-25T18:09:05.891Z,33.00
2019-02-25T18:11:32.245Z,33.10
2019-02-25T18:13:58.513Z,33.10
2019-02-25T18:16:24.719Z,33.00
2019-02-25T18:18:52.443Z,33.00
2019-02-25T18:21:17.148Z,33.00
2019-02-25T18:23:44.746Z,33.00
2019-02-25T18:26:12.445Z,33.00
2019-02-25T18:28:37.458Z,33.00
2019-02-25T18:31:04.400Z,33.00
2019-02-25T18:33:29.718Z,33.00
2019-02-25T18:35:55.933Z,33.00
2019-02-25T18:38:23.293Z,33.00
2019-02-25T18:40:48.381Z,33.00
2019-02-25T18:43:14.625Z,32.90
2019-02-25T18:45:42.635Z,32.90
2019-02-25T18:48:07.118Z,33.50
2019-02-25T18:50:33.317Z,32.80
2019-02-25T18:53:01.195Z,32.80
2019-02-25T18:55:27.110Z,32.70
2019-02-25T18:57:52.366Z,32.70
2019-02-25T19:00:18.424Z,32.70
2019-02-25T19:02:44.490Z,32.60
2019-02-25T19:05:13.812Z,32.70
2019-02-25T19:07:36.960Z,32.70
2019-02-25T19:10:03.158Z,32.70
2019-02-25T19:12:29.349Z,32.60
2019-02-25T19:14:57.270Z,32.60
2019-02-25T19:17:23.161Z,32.50
2019-02-25T19:19:51.536Z,32.60
2019-02-25T19:22:15.787Z,32.50
2019-02-25T19:24:42.256Z,32.60
2019-02-25T19:27:08.663Z,32.50
2019-02-25T19:29:33.109Z,32.60
2019-02-25T19:32:01.166Z,32.60
2019-02-25T19:34:25.733Z,32.60
2019-02-25T19:36:51.948Z,33.30
2019-02-25T19:39:19.821Z,33.40
2019-02-25T19:41:46.980Z,32.60
2019-02-25T19:44:12.284Z,32.60
2019-02-25T19:46:36.833Z,32.60
2019-02-25T19:49:03.216Z,32.50
2019-02-25T19:51:29.837Z,32.60
2019-02-25T19:53:55.669Z,33.30
2019-02-25T19:56:22.027Z,32.50
2019-02-25T19:58:48.394Z,32.60
2019-02-25T20:01:14.741Z,32.60
2019-02-25T20:03:42.638Z,32.60
2019-02-25T20:06:11.124Z,32.70
2019-02-25T20:08:33.440Z,32.50
2019-02-25T20:10:59.649Z,32.60
2019-02-25T20:13:26.004Z,32.60
2019-02-25T20:15:53.237Z,32.60
2019-02-25T20:18:18.569Z,32.60
2019-02-25T20:20:44.800Z,32.50
2019-02-25T20:23:11.021Z,32.50
2019-02-25T20:25:37.271Z,32.50
2019-02-25T20:28:04.324Z,32.60
2019-02-25T20:30:30.537Z,32.70
2019-02-25T20:32:55.959Z,32.50
2019-02-25T20:35:24.109Z,32.60
2019-02-25T20:37:51.105Z,32.50
2019-02-25T20:40:19.050Z,32.60
2019-02-25T20:42:42.134Z,32.60
2019-02-25T20:45:08.822Z,32.50
2019-02-25T20:47:34.554Z,32.40
2019-02-25T20:50:03.177Z,32.50
2019-02-25T20:52:27.046Z,33.10
2019-02-25T20:54:53.262Z,32.40
2019-02-25T20:57:20.254Z,32.50
2019-02-25T20:59:53.088Z,32.50
2019-02-25T21:02:18.801Z,32.50
2019-02-25T21:04:45.480Z,32.50
2019-02-25T21:07:15.134Z,32.60
2019-02-25T21:09:42.290Z,32.60
2019-02-25T21:12:08.257Z,32.60
2019-02-25T21:14:35.582Z,32.50
2019-02-25T21:17:01.005Z,32.50
2019-02-25T21:19:26.215Z,32.60
2019-02-25T21:21:55.025Z,32.40
2019-02-25T21:24:18.605Z,32.40
2019-02-25T21:26:44.793Z,32.30
2019-02-25T21:29:10.992Z,32.30
2019-02-25T21:31:37.176Z,32.50
2019-02-25T21:34:03.360Z,32.40
2019-02-25T21:36:30.081Z,32.50
2019-02-25T21:38:56.052Z,32.30
2019-02-25T21:43:56.059Z,32.40
2019-02-25T21:46:22.090Z,32.50
2019-02-25T21:48:46.204Z,32.30
2019-02-25T21:51:14.302Z,32.40
2019-02-25T21:53:38.555Z,32.40
2019-02-25T21:56:04.938Z,32.30
2019-02-25T21:58:30.904Z,32.30
2019-02-25T22:00:57.068Z,32.40
2019-02-25T22:03:23.212Z,32.40
2019-02-25T22:05:51.384Z,32.40
2019-02-25T22:08:15.585Z,32.30
2019-02-25T22:10:43.585Z,32.30
2019-02-25T22:13:09.486Z,32.40
2019-02-25T22:15:36.089Z,32.40
2019-02-25T22:18:01.682Z,32.40
2019-02-25T22:20:26.629Z,32.40
2019-02-25T22:22:56.693Z,32.50
2019-02-25T22:25:19.007Z,32.40
2019-02-25T22:27:45.599Z,32.40
2019-02-25T22:30:11.377Z,32.40
2019-02-25T22:32:38.324Z,32.50
2019-02-25T22:35:04.976Z,32.50
2019-02-25T22:37:29.916Z,32.60
2019-02-25T22:39:56.101Z,32.50
2019-02-25T22:42:22.276Z,32.50
2019-02-25T22:44:49.693Z,32.60
2019-02-25T22:47:16.107Z,32.60
2019-02-25T22:49:40.851Z,32.50
2019-02-25T22:52:07.768Z,32.50
2019-02-25T22:54:37.059Z,32.50
2019-02-25T22:57:00.132Z,32.50
2019-02-25T22:59:26.282Z,32.50
2019-02-25T23:01:52.695Z,32.50
2019-02-25T23:04:19.682Z,32.60
2019-02-25T23:06:46.388Z,32.60
2019-02-25T23:09:14.088Z,32.50
2019-02-25T23:11:39.830Z,32.50
2019-02-25T23:14:04.248Z,32.50
2019-02-25T23:16:30.396Z,32.50
2019-02-25T23:18:56.569Z,32.50
2019-02-25T23:21:24.235Z,32.50
2019-02-25T23:23:51.317Z,32.50
2019-02-25T23:26:16.901Z,32.50
2019-02-25T23:28:41.313Z,32.60
2019-02-25T23:31:08.241Z,32.60
2019-02-25T23:33:38.168Z,32.60
2019-02-25T23:36:00.610Z,32.60
2019-02-25T23:38:26.762Z,32.60
2019-02-25T23:40:52.909Z,32.70
2019-02-25T23:43:19.063Z,33.50
2019-02-25T23:45:46.379Z,32.70
2019-02-25T23:48:11.800Z,32.80
2019-02-25T23:50:37.629Z,32.50
2019-02-25T23:53:03.800Z,32.80
2019-02-25T23:55:29.953Z,32.70
2019-02-25T23:57:56.116Z,32.70
